Time;durP1;ratioP1;P1;durP2;ratioP2;P2;SDS_P1;SDS_P2;PMS_P1;PMS_P2;Temp;Humidity;BMP_temperature;BMP_pressure;BME280_temperature;BME280_humidity;BME280_pressure;Samples;Min_cycle;Max_cycle;Signal;HPM_P1;HPM_P2
2022/03/30 00:01:18;;;;;;;17.50;10.70;;;;;;;;;;5071884;28;20164;-70
2022/03/30 00:03:44;;;;;;;19.05;11.30;;;;;;;;;;5071780;28;20192;-70
2022/03/30 00:06:10;;;;;;;16.33;10.05;;;;;;;;;;5071789;28;20153;-70
2022/03/30 00:08:36;;;;;;;16.67;9.90;;;;;;;;;;5071738;28;20169;-70
2022/03/30 00:11:03;;;;;;;18.40;10.05;;;;;;;;;;5071667;28;20165;-71
2022/03/30 00:13:29;;;;;;;14.23;9.18;;;;;;;;;;5071594;28;20163;-72
2022/03/30 00:15:55;;;;;;;18.17;10.73;;;;;;;;;;5071623;28;20164;-71
2022/03/30 00:18:21;;;;;;;14.70;9.52;;;;;;;;;;5071487;28;20188;-71
2022/03/30 00:20:48;;;;;;;15.63;9.60;;;;;;;;;;5071566;28;20164;-71
2022/03/30 00:23:14;;;;;;;14.75;9.43;;;;;;;;;;5071500;28;20153;-71
2022/03/30 00:25:40;;;;;;;13.80;9.85;;;;;;;;;;5071416;28;20172;-70
2022/03/30 00:28:08;;;;;;;13.85;8.82;;;;;;;;;;5065608;28;20196;-70
2022/03/30 00:30:34;;;;;;;18.02;9.25;;;;;;;;;;5051370;28;20188;-69
2022/03/30 00:33:00;;;;;;;14.98;8.98;;;;;;;;;;5051376;28;20177;-71
2022/03/30 00:35:27;;;;;;;13.30;9.55;;;;;;;;;;5050201;28;20217;-70
2022/03/30 00:37:53;;;;;;;13.02;8.15;;;;;;;;;;5051000;28;20248;-70
2022/03/30 00:40:19;;;;;;;12.63;8.40;;;;;;;;;;5051212;28;20181;-71
2022/03/30 00:42:45;;;;;;;12.80;9.15;;;;;;;;;;5051130;28;20199;-70
2022/03/30 00:45:13;;;;;;;15.35;10.07;;;;;;;;;;5051961;28;20600;-70
2022/03/30 00:47:40;;;;;;;15.50;9.82;;;;;;;;;;5071015;28;20179;-70
2022/03/30 00:50:07;;;;;;;15.10;9.00;;;;;;;;;;5070997;28;20180;-70
2022/03/30 00:52:33;;;;;;;17.20;9.63;;;;;;;;;;5052918;28;20176;-70
2022/03/30 00:55:00;;;;;;;15.57;9.88;;;;;;;;;;5070788;28;20192;-70
2022/03/30 00:57:28;;;;;;;18.13;9.75;;;;;;;;;;5070719;28;20200;-70
2022/03/30 00:59:54;;;;;;;17.40;11.02;;;;;;;;;;5070543;28;20278;-70
2022/03/30 01:02:22;;;;;;;17.77;10.70;;;;;;;;;;5070745;28;20161;-72
2022/03/30 01:04:48;;;;;;;17.15;10.30;;;;;;;;;;5070554;28;20184;-72
2022/03/30 01:07:14;;;;;;;16.75;9.70;;;;;;;;;;5070644;28;20191;-70
2022/03/30 01:09:41;;;;;;;15.95;9.02;;;;;;;;;;5070652;28;20169;-70
2022/03/30 01:12:08;;;;;;;18.00;9.77;;;;;;;;;;5070506;28;20161;-70
2022/03/30 01:14:35;;;;;;;21.20;9.38;;;;;;;;;;5070440;28;20207;-72
2022/03/30 01:17:01;;;;;;;17.98;9.38;;;;;;;;;;5070523;28;20195;-73
2022/03/30 01:19:31;;;;;;;16.50;9.55;;;;;;;;;;5070373;28;20188;-72
2022/03/30 01:21:58;;;;;;;18.65;10.45;;;;;;;;;;5070393;28;20164;-72
2022/03/30 01:24:25;;;;;;;15.05;9.65;;;;;;;;;;5070205;28;20279;-73
2022/03/30 01:26:51;;;;;;;13.48;9.02;;;;;;;;;;5070258;28;20157;-73
2022/03/30 01:34:46;;;;;;;18.48;9.63;;;;;;;;;;5070112;28;20208;-72
2022/03/30 01:37:14;;;;;;;14.15;9.35;;;;;;;;;;5070042;28;20172;-71
2022/03/30 01:39:41;;;;;;;17.63;9.80;;;;;;;;;;5070048;28;20223;-71
2022/03/30 01:42:07;;;;;;;18.23;9.25;;;;;;;;;;5070012;28;20169;-72
2022/03/30 01:44:34;;;;;;;17.77;9.93;;;;;;;;;;5069811;28;20218;-72
2022/03/30 01:47:01;;;;;;;23.83;9.55;;;;;;;;;;5058026;28;20176;-71
2022/03/30 01:49:27;;;;;;;15.77;9.75;;;;;;;;;;5049866;28;20172;-71
2022/03/30 01:51:55;;;;;;;14.75;8.73;;;;;;;;;;5049922;28;20204;-71
2022/03/30 01:54:22;;;;;;;10.55;8.32;;;;;;;;;;5064964;28;20215;-71
2022/03/30 01:56:49;;;;;;;17.73;8.50;;;;;;;;;;5069673;28;20157;-71
2022/03/30 01:59:16;;;;;;;15.00;8.45;;;;;;;;;;5069388;28;20220;-71
2022/03/30 02:01:42;;;;;;;14.90;8.68;;;;;;;;;;5069553;28;20180;-71
2022/03/30 02:04:09;;;;;;;14.55;7.30;;;;;;;;;;5069635;28;20200;-70
2022/03/30 02:06:37;;;;;;;11.35;7.72;;;;;;;;;;5069533;28;20157;-71
2022/03/30 02:09:04;;;;;;;16.45;9.60;;;;;;;;;;5069454;28;20246;-71
2022/03/30 02:11:30;;;;;;;17.83;8.15;;;;;;;;;;5069447;28;20175;-71
2022/03/30 02:13:57;;;;;;;16.30;8.95;;;;;;;;;;5069360;28;20214;-71
2022/03/30 02:16:24;;;;;;;18.80;9.85;;;;;;;;;;5069429;28;20169;-71
2022/03/30 02:18:51;;;;;;;18.55;10.32;;;;;;;;;;5069322;28;20280;-70
2022/03/30 02:21:17;;;;;;;16.40;9.00;;;;;;;;;;5069344;28;20247;-71
2022/03/30 02:23:47;;;;;;;17.25;9.82;;;;;;;;;;5069243;28;20193;-71
2022/03/30 02:26:16;;;;;;;16.45;9.50;;;;;;;;;;5069257;28;20168;-72
2022/03/30 02:28:44;;;;;;;15.65;8.88;;;;;;;;;;5069058;28;20212;-71
2022/03/30 02:31:10;;;;;;;17.08;9.77;;;;;;;;;;5069230;28;20213;-72
2022/03/30 02:33:36;;;;;;;14.48;9.35;;;;;;;;;;5069034;28;20200;-71
2022/03/30 02:36:03;;;;;;;13.05;8.80;;;;;;;;;;5069171;28;20164;-72
2022/03/30 02:38:30;;;;;;;16.23;9.35;;;;;;;;;;5069126;28;20220;-72
2022/03/30 02:40:56;;;;;;;16.92;9.25;;;;;;;;;;5069177;28;20157;-71
2022/03/30 02:43:22;;;;;;;18.70;8.57;;;;;;;;;;5069118;28;20637;-71
2022/03/30 02:45:49;;;;;;;15.23;9.60;;;;;;;;;;5069097;28;20164;-71
2022/03/30 02:48:18;;;;;;;15.82;9.63;;;;;;;;;;5069045;28;20251;-71
2022/03/30 02:50:47;;;;;;;18.85;9.30;;;;;;;;;;5069044;28;20157;-71
2022/03/30 02:53:14;;;;;;;10.05;8.00;;;;;;;;;;5068882;28;20591;-71
2022/03/30 02:55:40;;;;;;;15.60;9.68;;;;;;;;;;5068894;28;20200;-71
2022/03/30 02:58:08;;;;;;;15.20;9.50;;;;;;;;;;5068779;28;20199;-70
2022/03/30 03:00:35;;;;;;;16.35;9.07;;;;;;;;;;5072257;28;20220;-71
2022/03/30 03:03:02;;;;;;;14.38;7.90;;;;;;;;;;5073104;28;20191;-71
2022/03/30 03:05:32;;;;;;;16.67;8.98;;;;;;;;;;5072832;28;20192;-71
2022/03/30 03:08:01;;;;;;;17.25;9.32;;;;;;;;;;5072839;28;20161;-71
2022/03/30 03:10:28;;;;;;;14.65;8.45;;;;;;;;;;5072836;28;20165;-71
2022/03/30 03:12:55;;;;;;;13.15;8.38;;;;;;;;;;5072757;28;20220;-71
2022/03/30 03:15:22;;;;;;;13.57;8.30;;;;;;;;;;5072556;28;20220;-71
2022/03/30 03:17:48;;;;;;;12.05;8.10;;;;;;;;;;5072721;28;20641;-71
2022/03/30 03:20:15;;;;;;;19.27;9.10;;;;;;;;;;5072607;28;20153;-71
2022/03/30 03:22:41;;;;;;;14.98;8.50;;;;;;;;;;5072583;28;20165;-72
2022/03/30 03:25:09;;;;;;;12.40;8.48;;;;;;;;;;5054546;28;20200;-71
2022/03/30 03:27:35;;;;;;;13.50;8.15;;;;;;;;;;5072708;28;20181;-72
2022/03/30 03:30:01;;;;;;;11.40;7.90;;;;;;;;;;5054850;28;20188;-72
2022/03/30 03:32:27;;;;;;;13.80;9.48;;;;;;;;;;5072374;28;20165;-71
2022/03/30 03:34:54;;;;;;;16.33;8.52;;;;;;;;;;5072256;28;20670;-71
2022/03/30 03:37:20;;;;;;;13.65;8.02;;;;;;;;;;5072322;28;20161;-72
2022/03/30 03:39:46;;;;;;;13.70;9.05;;;;;;;;;;5072246;28;20184;-70
2022/03/30 03:42:13;;;;;;;18.05;9.23;;;;;;;;;;5072104;28;20206;-70
2022/03/30 03:44:39;;;;;;;15.98;7.82;;;;;;;;;;5072169;28;20674;-70
2022/03/30 03:47:09;;;;;;;16.45;8.93;;;;;;;;;;5072159;28;20239;-70
2022/03/30 03:49:38;;;;;;;14.13;8.88;;;;;;;;;;5072103;28;20161;-70
2022/03/30 03:52:05;;;;;;;19.50;9.95;;;;;;;;;;5071906;28;20164;-70
2022/03/30 03:54:31;;;;;;;16.65;9.80;;;;;;;;;;5071935;28;20196;-71
2022/03/30 03:56:58;;;;;;;18.17;8.20;;;;;;;;;;5071948;28;20238;-71
2022/03/30 03:59:24;;;;;;;13.27;8.35;;;;;;;;;;5071608;28;20239;-71
2022/03/30 04:01:50;;;;;;;12.70;9.38;;;;;;;;;;5071777;28;20198;-71
2022/03/30 04:04:18;;;;;;;16.27;10.38;;;;;;;;;;5071666;28;20208;-71
2022/03/30 04:06:44;;;;;;;19.67;9.65;;;;;;;;;;5071755;28;20161;-71
2022/03/30 04:09:10;;;;;;;16.30;9.95;;;;;;;;;;5071669;28;20196;-71
2022/03/30 04:11:36;;;;;;;15.10;9.07;;;;;;;;;;5071393;28;20537;-71
2022/03/30 04:14:03;;;;;;;18.70;9.45;;;;;;;;;;5053603;28;20192;-71
2022/03/30 04:16:30;;;;;;;17.90;9.88;;;;;;;;;;5071231;28;20622;-70
2022/03/30 04:18:56;;;;;;;17.10;10.60;;;;;;;;;;5071370;28;20189;-72
2022/03/30 04:21:23;;;;;;;21.48;8.63;;;;;;;;;;5053639;28;20176;-72
2022/03/30 04:23:49;;;;;;;16.58;9.88;;;;;;;;;;5071270;28;20205;-71
2022/03/30 04:26:15;;;;;;;14.10;8.38;;;;;;;;;;5071217;28;20165;-73
2022/03/30 04:28:41;;;;;;;14.27;7.80;;;;;;;;;;5071120;28;20187;-70
2022/03/30 04:31:08;;;;;;;13.70;7.82;;;;;;;;;;5053475;28;20222;-70
2022/03/30 04:33:35;;;;;;;15.55;7.55;;;;;;;;;;5071171;28;20157;-71
2022/03/30 04:36:05;;;;;;;15.02;8.68;;;;;;;;;;5071127;28;20165;-70
2022/03/30 04:38:32;;;;;;;19.48;8.05;;;;;;;;;;5070947;28;20219;-70
2022/03/30 04:40:58;;;;;;;13.50;7.90;;;;;;;;;;5070965;28;20214;-70
2022/03/30 04:43:24;;;;;;;16.88;7.38;;;;;;;;;;5070985;28;20156;-70
2022/03/30 04:45:50;;;;;;;15.55;8.07;;;;;;;;;;5071090;28;20528;-71
2022/03/30 04:48:17;;;;;;;11.63;6.82;;;;;;;;;;5070884;28;20201;-71
2022/03/30 04:50:43;;;;;;;10.75;7.70;;;;;;;;;;5070803;28;20168;-71
2022/03/30 04:53:09;;;;;;;15.00;7.10;;;;;;;;;;5070667;28;20168;-71
2022/03/30 04:55:36;;;;;;;14.05;7.25;;;;;;;;;;5070712;28;20222;-71
2022/03/30 04:58:03;;;;;;;19.00;8.80;;;;;;;;;;5070324;28;20153;-71
2022/03/30 05:00:29;;;;;;;16.42;8.00;;;;;;;;;;5070423;28;20218;-71
2022/03/30 05:02:56;;;;;;;14.60;7.75;;;;;;;;;;5070430;28;20165;-71
2022/03/30 05:05:22;;;;;;;15.60;7.25;;;;;;;;;;5070434;28;20192;-72
2022/03/30 05:07:48;;;;;;;14.15;7.85;;;;;;;;;;5070586;28;20247;-71
2022/03/30 05:10:15;;;;;;;13.43;8.35;;;;;;;;;;5070303;28;20157;-72
2022/03/30 05:12:41;;;;;;;14.82;7.85;;;;;;;;;;5065247;28;20600;-71
2022/03/30 05:15:09;;;;;;;18.63;7.95;;;;;;;;;;5060835;28;20205;-71
2022/03/30 05:17:38;;;;;;;13.45;7.95;;;;;;;;;;5059175;28;20168;-71
2022/03/30 05:20:06;;;;;;;13.43;7.57;;;;;;;;;;5063607;28;20204;-72
2022/03/30 05:22:33;;;;;;;16.67;8.43;;;;;;;;;;5069465;28;20168;-70
2022/03/30 05:25:00;;;;;;;16.30;7.53;;;;;;;;;;5069842;28;20264;-71
2022/03/30 05:27:27;;;;;;;20.60;8.68;;;;;;;;;;5068293;28;20165;-70
2022/03/30 05:29:53;;;;;;;12.65;8.25;;;;;;;;;;5068894;28;20537;-71
2022/03/30 05:32:19;;;;;;;11.93;7.70;;;;;;;;;;5069503;28;20168;-71
2022/03/30 05:34:46;;;;;;;14.27;8.68;;;;;;;;;;5069432;28;20235;-71
2022/03/30 05:37:12;;;;;;;11.90;7.65;;;;;;;;;;5069525;28;20201;-70
2022/03/30 05:39:42;;;;;;;13.27;6.63;;;;;;;;;;5069582;28;20227;-69
2022/03/30 05:42:09;;;;;;;12.80;8.02;;;;;;;;;;5069622;28;20164;-70
2022/03/30 05:44:36;;;;;;;15.88;7.97;;;;;;;;;;5069232;28;20192;-70
2022/03/30 05:47:03;;;;;;;14.40;7.65;;;;;;;;;;5069601;28;20244;-70
2022/03/30 05:49:29;;;;;;;13.80;8.40;;;;;;;;;;5069471;28;20200;-71
2022/03/30 05:51:55;;;;;;;13.23;7.50;;;;;;;;;;5068456;28;20165;-71
2022/03/30 05:54:22;;;;;;;14.15;7.68;;;;;;;;;;5069741;28;20618;-70
2022/03/30 05:57:00;;;;;;;17.58;7.90;;;;;;;;;;5069479;28;20198;-71
2022/03/30 05:59:27;;;;;;;10.35;6.93;;;;;;;;;;5069280;28;20576;-70
2022/03/30 06:01:53;;;;;;;14.40;8.27;;;;;;;;;;5069553;28;20157;-70
2022/03/30 06:04:20;;;;;;;14.00;7.25;;;;;;;;;;5069396;28;20165;-71
2022/03/30 06:06:46;;;;;;;13.82;8.00;;;;;;;;;;5051388;28;20240;-71
2022/03/30 06:09:12;;;;;;;12.50;8.30;;;;;;;;;;5069349;28;20200;-71
2022/03/30 06:11:39;;;;;;;16.60;8.85;;;;;;;;;;5069256;28;20248;-70
2022/03/30 06:14:05;;;;;;;20.50;9.32;;;;;;;;;;5069078;28;20683;-71
2022/03/30 06:16:31;;;;;;;13.60;7.47;;;;;;;;;;5069295;28;20164;-74
2022/03/30 06:18:57;;;;;;;16.13;9.15;;;;;;;;;;5069137;28;20208;-73
2022/03/30 06:21:24;;;;;;;12.82;8.32;;;;;;;;;;5069035;28;20157;-75
2022/03/30 06:23:51;;;;;;;14.45;8.45;;;;;;;;;;5069000;28;20232;-73
2022/03/30 06:26:17;;;;;;;21.73;8.23;;;;;;;;;;5069057;28;20679;-73
2022/03/30 06:28:43;;;;;;;18.02;9.10;;;;;;;;;;5069048;28;20208;-73
2022/03/30 06:31:13;;;;;;;16.05;8.63;;;;;;;;;;5069044;28;20149;-74
2022/03/30 06:33:39;;;;;;;16.88;8.27;;;;;;;;;;5069066;28;20221;-74
2022/03/30 06:36:05;;;;;;;17.08;9.15;;;;;;;;;;5069048;28;20165;-74
2022/03/30 06:38:31;;;;;;;16.42;9.02;;;;;;;;;;5068815;28;20208;-74
2022/03/30 06:40:58;;;;;;;20.77;9.00;;;;;;;;;;5068831;28;20172;-73
2022/03/30 06:43:24;;;;;;;18.85;8.48;;;;;;;;;;5068861;28;20160;-76
2022/03/30 06:45:50;;;;;;;15.07;8.15;;;;;;;;;;5068815;28;20191;-75
2022/03/30 06:48:17;;;;;;;14.88;8.50;;;;;;;;;;5068865;28;20192;-73
2022/03/30 06:50:43;;;;;;;13.02;9.38;;;;;;;;;;5068886;28;20157;-74
2022/03/30 06:53:10;;;;;;;13.80;8.93;;;;;;;;;;5068831;28;20159;-74
2022/03/30 06:55:38;;;;;;;12.80;8.20;;;;;;;;;;5068844;28;20188;-74
2022/03/30 06:58:05;;;;;;;14.57;8.88;;;;;;;;;;5068746;28;20200;-73
2022/03/30 07:00:31;;;;;;;18.63;8.68;;;;;;;;;;5068597;28;20231;-72
2022/03/30 07:02:57;;;;;;;15.05;8.13;;;;;;;;;;5068895;28;20169;-72
2022/03/30 07:05:24;;;;;;;15.50;8.55;;;;;;;;;;5068851;28;20161;-71
2022/03/30 07:10:35;;;;;;;17.45;8.88;;;;;;;;;;5068651;28;20215;-72
2022/03/30 07:13:03;;;;;;;20.02;9.85;;;;;;;;;;5068600;28;20161;-72
2022/03/30 07:15:30;;;;;;;12.77;8.73;;;;;;;;;;5068498;28;20165;-72
2022/03/30 07:18:00;;;;;;;16.95;8.38;;;;;;;;;;5050619;28;20200;-72
2022/03/30 07:20:27;;;;;;;16.38;9.73;;;;;;;;;;5068673;28;20169;-72
2022/03/30 07:22:53;;;;;;;16.42;9.35;;;;;;;;;;5062578;28;20248;-72
2022/03/30 07:25:21;;;;;;;16.67;9.68;;;;;;;;;;5050032;28;20225;-72
2022/03/30 07:27:49;;;;;;;16.85;8.93;;;;;;;;;;5048324;28;20406;-72
2022/03/30 07:30:16;;;;;;;25.30;9.63;;;;;;;;;;5048461;28;20193;-71
2022/03/30 07:32:43;;;;;;;12.73;8.60;;;;;;;;;;5048564;28;20158;-71
2022/03/30 07:35:11;;;;;;;15.60;8.73;;;;;;;;;;5048419;28;20221;-72
2022/03/30 07:37:38;;;;;;;19.60;9.15;;;;;;;;;;5048342;28;20196;-72
2022/03/30 07:40:05;;;;;;;13.60;8.63;;;;;;;;;;5048409;28;20193;-71
2022/03/30 07:42:31;;;;;;;20.33;9.70;;;;;;;;;;5048345;28;20217;-72
2022/03/30 07:44:57;;;;;;;19.42;9.10;;;;;;;;;;5048907;28;20165;-71
2022/03/30 07:47:25;;;;;;;17.45;9.90;;;;;;;;;;5052089;28;20161;-75
2022/03/30 07:49:52;;;;;;;15.82;10.13;;;;;;;;;;5052040;28;20201;-73
2022/03/30 07:52:20;;;;;;;15.15;10.25;;;;;;;;;;5051971;28;20154;-72
2022/03/30 07:54:47;;;;;;;16.83;11.10;;;;;;;;;;5052038;28;20583;-71
2022/03/30 07:57:15;;;;;;;17.40;10.30;;;;;;;;;;5052096;28;20168;-72
2022/03/30 07:59:42;;;;;;;18.33;10.82;;;;;;;;;;5051560;28;20239;-72
2022/03/30 08:02:10;;;;;;;16.50;8.98;;;;;;;;;;5051613;28;20217;-72
2022/03/30 08:04:36;;;;;;;18.63;10.38;;;;;;;;;;5051863;28;20156;-71
2022/03/30 08:07:04;;;;;;;18.48;9.15;;;;;;;;;;5051841;28;20177;-71
2022/03/30 08:09:30;;;;;;;17.50;9.48;;;;;;;;;;5051531;28;20228;-73
2022/03/30 08:11:57;;;;;;;14.85;9.13;;;;;;;;;;5051642;28;20192;-72
2022/03/30 08:14:23;;;;;;;19.50;10.13;;;;;;;;;;5051609;28;20216;-73
2022/03/30 08:16:49;;;;;;;14.73;9.55;;;;;;;;;;5051491;28;20261;-72
2022/03/30 08:19:15;;;;;;;18.15;9.95;;;;;;;;;;5051425;28;20260;-76
2022/03/30 08:24:27;;;;;;;18.85;10.48;;;;;;;;;;5051403;28;20188;-75
2022/03/30 08:26:53;;;;;;;23.52;10.65;;;;;;;;;;5051450;28;20225;-72
2022/03/30 08:29:19;;;;;;;17.33;9.93;;;;;;;;;;5051214;28;20207;-74
2022/03/30 08:31:47;;;;;;;18.23;9.27;;;;;;;;;;5051261;28;20162;-73
2022/03/30 08:34:14;;;;;;;20.85;10.30;;;;;;;;;;5051319;28;20211;-74
2022/03/30 08:36:41;;;;;;;14.57;9.50;;;;;;;;;;5051217;28;20158;-73
2022/03/30 08:39:11;;;;;;;19.08;9.27;;;;;;;;;;5050987;28;20201;-74
2022/03/30 08:41:46;;;;;;;17.67;10.05;;;;;;;;;;5051278;28;20162;-74
2022/03/30 08:44:14;;;;;;;18.10;8.95;;;;;;;;;;5050902;28;20160;-75
2022/03/30 08:46:47;;;;;;;13.45;8.85;;;;;;;;;;5050907;28;20153;-73
2022/03/30 08:49:15;;;;;;;18.05;9.50;;;;;;;;;;5050817;28;20201;-73
2022/03/30 08:51:42;;;;;;;15.10;8.82;;;;;;;;;;5050788;28;20173;-74
2022/03/30 08:54:12;;;;;;;12.77;8.85;;;;;;;;;;5050905;28;20158;-73
2022/03/30 08:56:39;;;;;;;18.42;10.15;;;;;;;;;;5049425;28;20646;-73
2022/03/30 08:59:06;;;;;;;16.58;9.68;;;;;;;;;;5050377;28;20209;-73
2022/03/30 09:01:33;;;;;;;19.23;9.70;;;;;;;;;;5050592;28;20227;-74
2022/03/30 09:04:02;;;;;;;16.00;9.63;;;;;;;;;;5050606;28;20225;-73
2022/03/30 09:06:29;;;;;;;16.88;9.40;;;;;;;;;;5050487;28;20173;-74
2022/03/30 09:08:59;;;;;;;15.00;9.45;;;;;;;;;;5050292;28;20666;-74
2022/03/30 09:11:55;;;;;;;16.95;9.43;;;;;;;;;;5050570;28;20161;-73
2022/03/30 09:14:24;;;;;;;15.55;9.43;;;;;;;;;;5050493;28;20153;-74
2022/03/30 09:16:52;;;;;;;16.67;9.07;;;;;;;;;;5050329;28;20641;-74
2022/03/30 09:19:19;;;;;;;13.93;9.00;;;;;;;;;;5050093;28;20213;-73
2022/03/30 09:21:56;;;;;;;20.45;9.27;;;;;;;;;;5050214;28;20168;-73
2022/03/30 09:24:30;;;;;;;23.15;9.70;;;;;;;;;;5032524;28;20192;-73
2022/03/30 09:26:58;;;;;;;17.40;9.40;;;;;;;;;;5050249;28;20211;-73
2022/03/30 09:29:31;;;;;;;18.17;10.15;;;;;;;;;;5050039;28;20189;-74
2022/03/30 09:31:57;;;;;;;15.48;9.80;;;;;;;;;;5050222;28;20161;-72
2022/03/30 09:34:23;;;;;;;15.88;9.32;;;;;;;;;;5050083;28;20169;-74
2022/03/30 09:36:52;;;;;;;15.13;10.40;;;;;;;;;;5050063;28;20192;-74
2022/03/30 09:39:27;;;;;;;16.42;9.23;;;;;;;;;;5049765;28;20205;-72
2022/03/30 09:41:55;;;;;;;20.13;10.52;;;;;;;;;;5049926;28;20522;-72
2022/03/30 09:44:22;;;;;;;16.42;10.48;;;;;;;;;;5049998;28;20154;-74
2022/03/30 09:46:52;;;;;;;14.60;9.27;;;;;;;;;;5049826;28;20220;-74
2022/03/30 09:49:37;;;;;;;17.65;9.63;;;;;;;;;;5048908;28;20249;-73
2022/03/30 09:52:14;;;;;;;13.55;9.07;;;;;;;;;;5049553;28;20226;-73
2022/03/30 09:54:47;;;;;;;19.05;9.02;;;;;;;;;;5049702;28;20161;-74
2022/03/30 09:57:16;;;;;;;15.18;9.18;;;;;;;;;;5049560;28;20184;-73
2022/03/30 09:59:58;;;;;;;17.80;9.43;;;;;;;;;;5054618;28;20284;-73
2022/03/30 10:02:25;;;;;;;17.35;9.88;;;;;;;;;;5052996;28;20171;-75
2022/03/30 10:04:52;;;;;;;17.05;10.75;;;;;;;;;;5069551;28;20184;-73
2022/03/30 10:07:19;;;;;;;17.05;8.77;;;;;;;;;;5060667;28;20174;-73
2022/03/30 10:09:49;;;;;;;17.52;9.32;;;;;;;;;;5048998;28;20200;-73
2022/03/30 10:12:19;;;;;;;17.52;10.30;;;;;;;;;;5049457;28;20167;-74
2022/03/30 10:14:46;;;;;;;21.27;11.10;;;;;;;;;;5049393;28;20623;-73
2022/03/30 10:17:13;;;;;;;19.10;9.18;;;;;;;;;;5068910;28;20173;-73
2022/03/30 10:19:44;;;;;;;17.52;10.45;;;;;;;;;;5069069;28;20208;-74
2022/03/30 10:22:18;;;;;;;19.83;10.05;;;;;;;;;;5069128;28;20163;-74
2022/03/30 10:25:08;;;;;;;18.73;9.73;;;;;;;;;;5069042;28;20271;-73
2022/03/30 10:27:45;;;;;;;19.55;9.57;;;;;;;;;;5069190;28;20157;-75
2022/03/30 10:30:12;;;;;;;18.02;9.90;;;;;;;;;;5068980;28;20243;-73
2022/03/30 10:32:38;;;;;;;19.83;10.80;;;;;;;;;;5045522;28;20174;-73
2022/03/30 10:35:05;;;;;;;16.80;11.25;;;;;;;;;;5048951;28;20216;-75
2022/03/30 10:37:34;;;;;;;16.13;10.10;;;;;;;;;;5049146;28;20248;-76
2022/03/30 10:40:03;;;;;;;19.55;10.15;;;;;;;;;;5049108;28;20228;-74
2022/03/30 10:42:49;;;;;;;18.67;10.00;;;;;;;;;;5048949;28;20164;-75
2022/03/30 10:45:18;;;;;;;20.35;9.80;;;;;;;;;;5048826;28;20299;-76
2022/03/30 10:48:04;;;;;;;19.90;10.70;;;;;;;;;;5048981;28;20164;-75
2022/03/30 10:50:33;;;;;;;16.42;9.60;;;;;;;;;;4999046;28;20197;-74
2022/03/30 10:52:59;;;;;;;17.05;10.60;;;;;;;;;;5048856;28;20181;-77
2022/03/30 10:55:26;;;;;;;20.40;10.02;;;;;;;;;;5048838;28;20249;-76
2022/03/30 10:57:53;;;;;;;20.42;10.27;;;;;;;;;;5048667;28;20177;-75
2022/03/30 11:00:31;;;;;;;20.38;10.85;;;;;;;;;;5064341;28;20247;-76
2022/03/30 11:03:07;;;;;;;16.80;9.85;;;;;;;;;;5068925;28;20169;-76
2022/03/30 11:05:33;;;;;;;21.33;11.50;;;;;;;;;;5050947;28;20180;-75
2022/03/30 11:08:00;;;;;;;27.20;10.45;;;;;;;;;;5068501;28;20529;-76
2022/03/30 11:10:27;;;;;;;17.55;11.13;;;;;;;;;;5068702;28;20161;-76
2022/03/30 11:13:03;;;;;;;26.73;11.00;;;;;;;;;;5068840;28;20153;-77
2022/03/30 11:15:30;;;;;;;20.17;10.70;;;;;;;;;;5068664;28;20155;-76
2022/03/30 11:18:17;;;;;;;19.15;11.18;;;;;;;;;;5050831;28;20169;-75
2022/03/30 11:21:03;;;;;;;16.02;9.95;;;;;;;;;;5052463;28;20202;-75
2022/03/30 11:23:30;;;;;;;15.57;9.80;;;;;;;;;;5072265;28;20180;-74
2022/03/30 11:25:56;;;;;;;18.08;10.63;;;;;;;;;;5072361;28;20152;-75
2022/03/30 11:28:43;;;;;;;17.25;11.25;;;;;;;;;;5072425;28;20188;-76
2022/03/30 11:31:22;;;;;;;19.35;11.60;;;;;;;;;;5072270;28;20196;-75
2022/03/30 11:34:06;;;;;;;20.02;10.57;;;;;;;;;;5072118;28;20173;-76
2022/03/30 11:36:33;;;;;;;18.15;10.35;;;;;;;;;;5072172;28;20168;-76
2022/03/30 11:39:01;;;;;;;25.65;11.65;;;;;;;;;;5072364;28;20287;-77
2022/03/30 11:41:28;;;;;;;20.10;10.48;;;;;;;;;;5072168;28;20193;-77
2022/03/30 11:46:40;;;;;;;18.52;10.82;;;;;;;;;;5072106;28;20187;-77
2022/03/30 11:49:06;;;;;;;21.15;10.95;;;;;;;;;;5072023;28;20161;-76
2022/03/30 11:51:33;;;;;;;22.75;11.90;;;;;;;;;;5071791;28;20256;-76
2022/03/30 11:54:13;;;;;;;18.58;10.90;;;;;;;;;;5072067;28;20580;-76
2022/03/30 11:56:40;;;;;;;19.98;9.98;;;;;;;;;;5071920;28;20165;-76
2022/03/30 11:59:06;;;;;;;20.63;11.20;;;;;;;;;;5071542;28;20253;-75
2022/03/30 12:01:36;;;;;;;17.00;10.88;;;;;;;;;;5071690;28;20192;-77
2022/03/30 12:04:02;;;;;;;20.25;11.90;;;;;;;;;;5071827;28;20157;-77
2022/03/30 12:06:28;;;;;;;22.50;11.20;;;;;;;;;;5071630;28;20551;-77
2022/03/30 12:08:54;;;;;;;17.13;11.35;;;;;;;;;;5071625;28;20172;-76
2022/03/30 12:11:22;;;;;;;30.52;11.93;;;;;;;;;;5071478;28;20192;-76
2022/03/30 12:13:52;;;;;;;22.48;11.75;;;;;;;;;;5071623;28;20207;-76
2022/03/30 12:16:19;;;;;;;19.15;11.77;;;;;;;;;;5071623;28;20179;-77
2022/03/30 12:18:47;;;;;;;21.50;11.80;;;;;;;;;;5071428;28;20199;-76
2022/03/30 12:21:14;;;;;;;21.80;11.63;;;;;;;;;;5071353;28;20193;-76
2022/03/30 12:23:54;;;;;;;17.00;11.55;;;;;;;;;;5071151;28;20181;-76
2022/03/30 12:26:20;;;;;;;20.23;11.52;;;;;;;;;;5071420;28;20167;-76
2022/03/30 12:28:46;;;;;;;21.27;11.73;;;;;;;;;;5071327;28;20228;-75
2022/03/30 12:31:14;;;;;;;24.40;11.40;;;;;;;;;;5070895;28;20198;-76
2022/03/30 12:33:44;;;;;;;24.80;11.25;;;;;;;;;;5070998;28;20551;-75
2022/03/30 12:36:14;;;;;;;21.50;11.07;;;;;;;;;;5071120;28;20168;-74
2022/03/30 12:38:41;;;;;;;19.45;11.70;;;;;;;;;;5071051;28;20188;-75
2022/03/30 12:41:07;;;;;;;24.58;10.27;;;;;;;;;;5071045;28;20189;-74
2022/03/30 12:43:33;;;;;;;18.73;11.07;;;;;;;;;;5071054;28;20164;-75
2022/03/30 12:46:03;;;;;;;18.48;10.90;;;;;;;;;;5070908;28;20243;-75
2022/03/30 12:48:31;;;;;;;16.25;10.43;;;;;;;;;;5070863;28;20200;-75
2022/03/30 12:50:59;;;;;;;20.85;11.68;;;;;;;;;;5070694;28;20249;-73
2022/03/30 12:53:31;;;;;;;17.15;11.02;;;;;;;;;;5070893;28;20634;-72
2022/03/30 12:56:09;;;;;;;19.45;12.63;;;;;;;;;;5070679;28;20228;-74
2022/03/30 12:58:48;;;;;;;20.13;11.40;;;;;;;;;;5070247;28;20680;-73
2022/03/30 13:01:27;;;;;;;18.73;11.35;;;;;;;;;;5057054;28;20191;-75
2022/03/30 13:03:53;;;;;;;17.98;10.82;;;;;;;;;;5058996;28;20263;-74
2022/03/30 13:06:21;;;;;;;22.90;10.68;;;;;;;;;;5070571;28;20617;-73
2022/03/30 13:09:07;;;;;;;14.95;10.13;;;;;;;;;;5070500;28;20203;-73
2022/03/30 13:11:40;;;;;;;18.23;10.20;;;;;;;;;;5062001;28;20727;-73
2022/03/30 13:14:10;;;;;;;14.45;9.75;;;;;;;;;;5050436;28;20250;-74
2022/03/30 13:16:37;;;;;;;15.95;9.75;;;;;;;;;;5050265;28;20169;-74
2022/03/30 13:19:05;;;;;;;15.23;9.98;;;;;;;;;;5048395;28;20255;-73
2022/03/30 13:21:39;;;;;;;20.15;10.95;;;;;;;;;;5031146;28;20173;-73
2022/03/30 13:24:19;;;;;;;16.13;10.85;;;;;;;;;;5050382;28;20157;-73
2022/03/30 13:26:46;;;;;;;16.15;9.45;;;;;;;;;;5050394;28;20158;-73
2022/03/30 13:29:14;;;;;;;16.40;9.18;;;;;;;;;;5050106;28;20220;-73
2022/03/30 13:31:44;;;;;;;15.63;9.18;;;;;;;;;;5050155;28;20534;-75
2022/03/30 13:34:11;;;;;;;13.23;9.85;;;;;;;;;;5049962;28;20211;-74
2022/03/30 13:36:38;;;;;;;14.98;9.32;;;;;;;;;;5050002;28;20161;-74
2022/03/30 13:39:05;;;;;;;17.45;9.75;;;;;;;;;;5049803;28;20219;-74
2022/03/30 13:41:31;;;;;;;15.73;8.43;;;;;;;;;;5049686;28;20280;-74
2022/03/30 13:43:58;;;;;;;19.80;9.77;;;;;;;;;;5049411;28;20153;-74
2022/03/30 13:46:25;;;;;;;14.85;8.82;;;;;;;;;;5049782;28;20157;-75
2022/03/30 13:48:51;;;;;;;11.98;7.75;;;;;;;;;;5049754;28;20193;-74
2022/03/30 13:51:18;;;;;;;15.93;8.32;;;;;;;;;;5049797;28;20176;-73
2022/03/30 13:53:44;;;;;;;14.02;8.02;;;;;;;;;;5049836;28;20170;-75
2022/03/30 13:56:12;;;;;;;19.05;8.82;;;;;;;;;;5049596;28;20534;-73
2022/03/30 13:58:38;;;;;;;13.32;9.00;;;;;;;;;;5049246;28;20220;-73
2022/03/30 14:01:06;;;;;;;15.80;7.93;;;;;;;;;;5049731;28;20193;-74
2022/03/30 14:03:32;;;;;;;12.27;8.15;;;;;;;;;;5049592;28;20193;-74
2022/03/30 14:05:59;;;;;;;14.40;8.05;;;;;;;;;;5031701;28;20181;-74
2022/03/30 14:08:25;;;;;;;13.68;7.53;;;;;;;;;;5068316;28;20204;-74
2022/03/30 14:10:55;;;;;;;13.65;7.30;;;;;;;;;;5064343;28;20212;-75
2022/03/30 14:13:22;;;;;;;16.48;7.82;;;;;;;;;;5049487;28;20157;-75
2022/03/30 14:15:49;;;;;;;14.45;6.55;;;;;;;;;;5049396;28;20215;-74
2022/03/30 14:18:16;;;;;;;13.18;6.63;;;;;;;;;;5031356;28;20208;-76
2022/03/30 14:20:42;;;;;;;12.82;6.43;;;;;;;;;;5049413;28;20287;-73
2022/03/30 14:23:12;;;;;;;13.27;7.15;;;;;;;;;;5049276;28;20217;-73
2022/03/30 14:25:38;;;;;;;14.30;6.20;;;;;;;;;;5049133;28;20174;-74
2022/03/30 14:28:06;;;;;;;11.35;6.80;;;;;;;;;;5049114;28;20217;-73
2022/03/30 14:30:32;;;;;;;10.75;6.47;;;;;;;;;;5049335;28;20174;-75
2022/03/30 14:32:59;;;;;;;11.82;6.63;;;;;;;;;;5049083;28;20162;-75
2022/03/30 14:35:29;;;;;;;9.48;5.68;;;;;;;;;;5049111;28;20149;-74
2022/03/30 14:37:56;;;;;;;13.40;6.15;;;;;;;;;;5048867;28;20248;-73
2022/03/30 14:40:23;;;;;;;10.40;6.05;;;;;;;;;;5048666;28;20216;-74
2022/03/30 14:42:49;;;;;;;9.90;5.25;;;;;;;;;;5048952;28;20317;-74
2022/03/30 14:45:15;;;;;;;8.90;5.47;;;;;;;;;;5048571;28;20173;-74